Bennetts Bay, Louisiana
Current Conditions -  °F | °C
As of 9:53 AM on Friday 24 Oct 2014 (Local Time) from KAEX Reporting Station
Clear Clear  
Wind Chill: 59°   Ceiling: Unl
Heat Index: 59°   Visibility: 10mi
Dew Point: 52°   Wind: 3mph
Humidity: 78%   Direction: 20°NNE
Pressure: 30.16"   Gusts: NA
Location:  31.0356°N, 92.5053°W
Report Text: KAEX 241453Z 02003KT 10SM CLR 15/11 A3016 RMK AO2 SLP217 T01500111 51009
Loading
Personal Weather Stations






























Interactive Weather Map
Tropical Storm Tracking
New forecast layout! Learn more

10-Day Weather Forecast

Advertisements
Track Severe Weather on mobile